sensor_id;sensor_type;location;lat;lon;timestamp;P1;durP1;ratioP1;P2;durP2;ratioP2
71814;SDS011;59659;41.520;23.794;2022-12-04T00:01:14;13.68;;;6.75;;
71814;SDS011;59659;41.520;23.794;2022-12-04T00:02:26;13.30;;;6.90;;
71814;SDS011;59659;41.520;23.794;2022-12-04T00:03:38;11.85;;;6.20;;
71814;SDS011;59659;41.520;23.794;2022-12-04T00:04:49;11.82;;;5.82;;
71814;SDS011;59659;41.520;23.794;2022-12-04T00:06:08;14.82;;;7.03;;
71814;SDS011;59659;41.520;23.794;2022-12-04T00:07:20;13.55;;;6.75;;
71814;SDS011;59659;41.520;23.794;2022-12-04T00:08:32;12.68;;;5.72;;
71814;SDS011;59659;41.520;23.794;2022-12-04T00:09:43;10.65;;;5.82;;
71814;SDS011;59659;41.520;23.794;2022-12-04T00:10:55;8.20;;;4.85;;
71814;SDS011;59659;41.520;23.794;2022-12-04T00:12:06;7.97;;;4.45;;
71814;SDS011;59659;41.520;23.794;2022-12-04T00:13:18;10.43;;;5.50;;
71814;SDS011;59659;41.520;23.794;2022-12-04T00:14:29;12.82;;;5.55;;
71814;SDS011;59659;41.520;23.794;2022-12-04T00:15:41;12.10;;;5.90;;
71814;SDS011;59659;41.520;23.794;2022-12-04T00:16:53;10.88;;;4.82;;
71814;SDS011;59659;41.520;23.794;2022-12-04T00:18:04;18.45;;;6.03;;
71814;SDS011;59659;41.520;23.794;2022-12-04T00:19:16;10.32;;;4.55;;
71814;SDS011;59659;41.520;23.794;2022-12-04T00:20:27;9.77;;;5.20;;
71814;SDS011;59659;41.520;23.794;2022-12-04T00:21:39;11.32;;;5.68;;
71814;SDS011;59659;41.520;23.794;2022-12-04T00:22:50;10.82;;;6.03;;
71814;SDS011;59659;41.520;23.794;2022-12-04T00:24:02;12.20;;;5.25;;
71814;SDS011;59659;41.520;23.794;2022-12-04T00:25:13;10.10;;;5.25;;
71814;SDS011;59659;41.520;23.794;2022-12-04T00:26:25;10.90;;;5.07;;
71814;SDS011;59659;41.520;23.794;2022-12-04T00:27:37;13.25;;;6.05;;
71814;SDS011;59659;41.520;23.794;2022-12-04T00:28:49;14.15;;;5.88;;
71814;SDS011;59659;41.520;23.794;2022-12-04T00:30:00;13.38;;;5.40;;
71814;SDS011;59659;41.520;23.794;2022-12-04T00:31:14;14.23;;;6.93;;
71814;SDS011;59659;41.520;23.794;2022-12-04T00:32:25;12.60;;;6.85;;
71814;SDS011;59659;41.520;23.794;2022-12-04T00:33:37;16.15;;;6.30;;
71814;SDS011;59659;41.520;23.794;2022-12-04T00:34:50;13.68;;;6.53;;
71814;SDS011;59659;41.520;23.794;2022-12-04T00:36:03;11.63;;;5.57;;
71814;SDS011;59659;41.520;23.794;2022-12-04T00:37:15;14.23;;;6.50;;
71814;SDS011;59659;41.520;23.794;2022-12-04T00:38:27;13.32;;;6.05;;
71814;SDS011;59659;41.520;23.794;2022-12-04T00:39:38;10.45;;;6.07;;
71814;SDS011;59659;41.520;23.794;2022-12-04T00:40:50;9.52;;;5.90;;
71814;SDS011;59659;41.520;23.794;2022-12-04T00:42:01;12.45;;;6.05;;
71814;SDS011;59659;41.520;23.794;2022-12-04T00:43:13;10.65;;;5.18;;
71814;SDS011;59659;41.520;23.794;2022-12-04T00:44:24;10.00;;;5.40;;
71814;SDS011;59659;41.520;23.794;2022-12-04T00:45:36;13.45;;;6.05;;
71814;SDS011;59659;41.520;23.794;2022-12-04T00:46:47;13.68;;;6.90;;
71814;SDS011;59659;41.520;23.794;2022-12-04T00:47:59;12.55;;;6.03;;
71814;SDS011;59659;41.520;23.794;2022-12-04T00:49:10;10.20;;;5.35;;
71814;SDS011;59659;41.520;23.794;2022-12-04T00:50:22;13.98;;;6.22;;
71814;SDS011;59659;41.520;23.794;2022-12-04T00:51:33;14.98;;;6.55;;
71814;SDS011;59659;41.520;23.794;2022-12-04T00:52:45;14.32;;;6.75;;
71814;SDS011;59659;41.520;23.794;2022-12-04T00:53:56;22.95;;;7.70;;
71814;SDS011;59659;41.520;23.794;2022-12-04T00:55:08;15.48;;;7.25;;
71814;SDS011;59659;41.520;23.794;2022-12-04T00:56:24;14.00;;;7.55;;
71814;SDS011;59659;41.520;23.794;2022-12-04T00:57:36;12.75;;;6.60;;
71814;SDS011;59659;41.520;23.794;2022-12-04T00:58:50;11.45;;;6.03;;
71814;SDS011;59659;41.520;23.794;2022-12-04T01:00:02;13.73;;;7.07;;
71814;SDS011;59659;41.520;23.794;2022-12-04T01:01:15;12.70;;;7.07;;
71814;SDS011;59659;41.520;23.794;2022-12-04T01:02:28;13.95;;;6.07;;
71814;SDS011;59659;41.520;23.794;2022-12-04T01:03:40;13.68;;;5.93;;
71814;SDS011;59659;41.520;23.794;2022-12-04T01:04:52;11.70;;;5.82;;
71814;SDS011;59659;41.520;23.794;2022-12-04T01:06:04;10.65;;;6.20;;
71814;SDS011;59659;41.520;23.794;2022-12-04T01:07:15;13.40;;;6.75;;
71814;SDS011;59659;41.520;23.794;2022-12-04T01:08:27;12.38;;;5.90;;
71814;SDS011;59659;41.520;23.794;2022-12-04T01:09:38;10.48;;;5.70;;
71814;SDS011;59659;41.520;23.794;2022-12-04T01:10:50;8.30;;;4.93;;
71814;SDS011;59659;41.520;23.794;2022-12-04T01:12:01;10.23;;;5.45;;
71814;SDS011;59659;41.520;23.794;2022-12-04T01:13:13;8.82;;;5.38;;
71814;SDS011;59659;41.520;23.794;2022-12-04T01:14:25;12.90;;;6.03;;
71814;SDS011;59659;41.520;23.794;2022-12-04T01:15:39;12.73;;;5.63;;
71814;SDS011;59659;41.520;23.794;2022-12-04T01:16:51;13.30;;;5.97;;
71814;SDS011;59659;41.520;23.794;2022-12-04T01:18:03;13.23;;;5.50;;
71814;SDS011;59659;41.520;23.794;2022-12-04T01:19:14;14.57;;;7.10;;
71814;SDS011;59659;41.520;23.794;2022-12-04T01:20:26;10.13;;;5.82;;
71814;SDS011;59659;41.520;23.794;2022-12-04T01:21:37;12.55;;;6.30;;
71814;SDS011;59659;41.520;23.794;2022-12-04T01:22:49;14.30;;;7.03;;
71814;SDS011;59659;41.520;23.794;2022-12-04T01:24:01;18.48;;;7.68;;
71814;SDS011;59659;41.520;23.794;2022-12-04T01:25:12;14.20;;;6.80;;
71814;SDS011;59659;41.520;23.794;2022-12-04T01:26:24;16.83;;;7.35;;
71814;SDS011;59659;41.520;23.794;2022-12-04T01:27:35;17.90;;;8.40;;
71814;SDS011;59659;41.520;23.794;2022-12-04T01:28:47;18.90;;;8.10;;
71814;SDS011;59659;41.520;23.794;2022-12-04T01:29:58;15.43;;;7.47;;
71814;SDS011;59659;41.520;23.794;2022-12-04T01:31:11;18.08;;;8.43;;
71814;SDS011;59659;41.520;23.794;2022-12-04T01:32:23;14.15;;;6.90;;
71814;SDS011;59659;41.520;23.794;2022-12-04T01:33:35;12.65;;;6.90;;
71814;SDS011;59659;41.520;23.794;2022-12-04T01:34:47;12.27;;;6.40;;
71814;SDS011;59659;41.520;23.794;2022-12-04T01:35:59;10.95;;;6.43;;
71814;SDS011;59659;41.520;23.794;2022-12-04T01:37:11;12.50;;;6.63;;
71814;SDS011;59659;41.520;23.794;2022-12-04T01:38:22;12.40;;;5.97;;
71814;SDS011;59659;41.520;23.794;2022-12-04T01:39:35;11.43;;;5.65;;
71814;SDS011;59659;41.520;23.794;2022-12-04T01:40:46;10.77;;;6.15;;
71814;SDS011;59659;41.520;23.794;2022-12-04T01:41:58;12.73;;;5.93;;
71814;SDS011;59659;41.520;23.794;2022-12-04T01:43:11;14.07;;;6.10;;
71814;SDS011;59659;41.520;23.794;2022-12-04T01:44:23;11.35;;;5.60;;
71814;SDS011;59659;41.520;23.794;2022-12-04T01:45:41;13.48;;;6.10;;
71814;SDS011;59659;41.520;23.794;2022-12-04T01:46:54;10.57;;;5.65;;
71814;SDS011;59659;41.520;23.794;2022-12-04T01:48:11;9.27;;;4.95;;
71814;SDS011;59659;41.520;23.794;2022-12-04T01:49:33;16.23;;;5.80;;
71814;SDS011;59659;41.520;23.794;2022-12-04T01:50:46;13.55;;;6.30;;
71814;SDS011;59659;41.520;23.794;2022-12-04T01:52:21;13.82;;;7.00;;
71814;SDS011;59659;41.520;23.794;2022-12-04T01:53:34;13.48;;;6.50;;
71814;SDS011;59659;41.520;23.794;2022-12-04T01:54:47;11.35;;;5.65;;
71814;SDS011;59659;41.520;23.794;2022-12-04T01:56:00;10.82;;;5.68;;
71814;SDS011;59659;41.520;23.794;2022-12-04T01:57:14;11.13;;;6.18;;
71814;SDS011;59659;41.520;23.794;2022-12-04T01:58:28;15.45;;;7.22;;
71814;SDS011;59659;41.520;23.794;2022-12-04T02:01:05;13.80;;;6.50;;
71814;SDS011;59659;41.520;23.794;2022-12-04T02:02:27;13.30;;;6.57;;
71814;SDS011;59659;41.520;23.794;2022-12-04T02:03:40;13.88;;;6.80;;
71814;SDS011;59659;41.520;23.794;2022-12-04T02:04:51;13.80;;;6.40;;
71814;SDS011;59659;41.520;23.794;2022-12-04T02:06:03;11.77;;;5.93;;
71814;SDS011;59659;41.520;23.794;2022-12-04T02:07:15;10.63;;;5.88;;
71814;SDS011;59659;41.520;23.794;2022-12-04T02:08:26;9.38;;;4.82;;
71814;SDS011;59659;41.520;23.794;2022-12-04T02:09:38;11.80;;;5.10;;
71814;SDS011;59659;41.520;23.794;2022-12-04T02:11:25;10.05;;;6.00;;
71814;SDS011;59659;41.520;23.794;2022-12-04T02:12:35;9.93;;;5.20;;
71814;SDS011;59659;41.520;23.794;2022-12-04T02:19:32;13.90;;;4.25;;
71814;SDS011;59659;41.520;23.794;2022-12-04T02:30:17;8.75;;;4.85;;
71814;SDS011;59659;41.520;23.794;2022-12-04T02:31:30;7.05;;;3.95;;
71814;SDS011;59659;41.520;23.794;2022-12-04T02:32:43;7.72;;;4.25;;
71814;SDS011;59659;41.520;23.794;2022-12-04T02:33:58;9.55;;;4.50;;
71814;SDS011;59659;41.520;23.794;2022-12-04T02:35:15;10.50;;;4.32;;
71814;SDS011;59659;41.520;23.794;2022-12-04T02:36:34;11.98;;;4.88;;
71814;SDS011;59659;41.520;23.794;2022-12-04T02:37:48;6.88;;;4.05;;
71814;SDS011;59659;41.520;23.794;2022-12-04T02:39:48;8.90;;;4.55;;
71814;SDS011;59659;41.520;23.794;2022-12-04T02:40:49;6.40;;;3.47;;
71814;SDS011;59659;41.520;23.794;2022-12-04T02:42:15;5.78;;;3.20;;
71814;SDS011;59659;41.520;23.794;2022-12-04T02:43:29;5.72;;;3.60;;
71814;SDS011;59659;41.520;23.794;2022-12-04T02:44:44;8.40;;;3.42;;
71814;SDS011;59659;41.520;23.794;2022-12-04T02:46:02;6.10;;;3.78;;
71814;SDS011;59659;41.520;23.794;2022-12-04T02:47:16;4.65;;;3.28;;
71814;SDS011;59659;41.520;23.794;2022-12-04T02:48:29;6.47;;;3.28;;
71814;SDS011;59659;41.520;23.794;2022-12-04T02:50:04;5.13;;;3.30;;
71814;SDS011;59659;41.520;23.794;2022-12-04T02:51:13;5.85;;;2.97;;
71814;SDS011;59659;41.520;23.794;2022-12-04T02:52:33;9.07;;;3.40;;
71814;SDS011;59659;41.520;23.794;2022-12-04T02:53:52;6.10;;;3.40;;
71814;SDS011;59659;41.520;23.794;2022-12-04T02:55:06;5.85;;;3.55;;
71814;SDS011;59659;41.520;23.794;2022-12-04T02:56:21;7.25;;;4.07;;
71814;SDS011;59659;41.520;23.794;2022-12-04T02:57:34;6.90;;;3.97;;
71814;SDS011;59659;41.520;23.794;2022-12-04T02:58:51;8.00;;;3.38;;
71814;SDS011;59659;41.520;23.794;2022-12-04T03:00:04;9.65;;;4.40;;
71814;SDS011;59659;41.520;23.794;2022-12-04T03:01:19;7.97;;;4.45;;
71814;SDS011;59659;41.520;23.794;2022-12-04T03:02:55;6.25;;;3.42;;
71814;SDS011;59659;41.520;23.794;2022-12-04T03:04:13;6.35;;;3.20;;
71814;SDS011;59659;41.520;23.794;2022-12-04T03:05:33;5.35;;;3.22;;
71814;SDS011;59659;41.520;23.794;2022-12-04T03:06:48;8.63;;;3.35;;
71814;SDS011;59659;41.520;23.794;2022-12-04T03:08:03;7.03;;;3.42;;
71814;SDS011;59659;41.520;23.794;2022-12-04T03:10:29;4.80;;;3.38;;
71814;SDS011;59659;41.520;23.794;2022-12-04T03:11:42;7.80;;;3.05;;
71814;SDS011;59659;41.520;23.794;2022-12-04T03:14:12;7.45;;;2.88;;
71814;SDS011;59659;41.520;23.794;2022-12-04T03:15:25;8.50;;;3.13;;
71814;SDS011;59659;41.520;23.794;2022-12-04T03:16:39;13.02;;;4.05;;
71814;SDS011;59659;41.520;23.794;2022-12-04T03:17:52;6.40;;;3.47;;
71814;SDS011;59659;41.520;23.794;2022-12-04T03:19:16;7.95;;;3.92;;
71814;SDS011;59659;41.520;23.794;2022-12-04T03:20:28;8.00;;;3.72;;
71814;SDS011;59659;41.520;23.794;2022-12-04T03:21:45;12.55;;;3.38;;
71814;SDS011;59659;41.520;23.794;2022-12-04T03:22:59;7.38;;;4.25;;
71814;SDS011;59659;41.520;23.794;2022-12-04T03:25:27;6.05;;;3.85;;
71814;SDS011;59659;41.520;23.794;2022-12-04T03:26:51;7.35;;;2.97;;
71814;SDS011;59659;41.520;23.794;2022-12-04T03:28:06;8.55;;;3.35;;
71814;SDS011;59659;41.520;23.794;2022-12-04T03:29:21;6.85;;;3.95;;
71814;SDS011;59659;41.520;23.794;2022-12-04T03:30:35;5.85;;;3.55;;
71814;SDS011;59659;41.520;23.794;2022-12-04T03:31:50;7.18;;;3.55;;
71814;SDS011;59659;41.520;23.794;2022-12-04T03:33:11;7.40;;;3.58;;
71814;SDS011;59659;41.520;23.794;2022-12-04T03:34:34;7.40;;;3.20;;
71814;SDS011;59659;41.520;23.794;2022-12-04T03:35:48;7.22;;;3.75;;
71814;SDS011;59659;41.520;23.794;2022-12-04T03:37:03;7.57;;;3.92;;
71814;SDS011;59659;41.520;23.794;2022-12-04T03:39:45;5.53;;;2.88;;
71814;SDS011;59659;41.520;23.794;2022-12-04T03:41:13;6.35;;;3.03;;
71814;SDS011;59659;41.520;23.794;2022-12-04T03:42:44;6.30;;;3.10;;
71814;SDS011;59659;41.520;23.794;2022-12-04T03:43:59;8.55;;;3.60;;
71814;SDS011;59659;41.520;23.794;2022-12-04T03:46:37;6.28;;;3.50;;
71814;SDS011;59659;41.520;23.794;2022-12-04T03:47:52;8.93;;;3.58;;
71814;SDS011;59659;41.520;23.794;2022-12-04T03:49:14;6.88;;;3.67;;
71814;SDS011;59659;41.520;23.794;2022-12-04T03:51:50;8.82;;;3.78;;
71814;SDS011;59659;41.520;23.794;2022-12-04T03:53:07;8.48;;;4.05;;
71814;SDS011;59659;41.520;23.794;2022-12-04T03:54:25;7.18;;;3.58;;
71814;SDS011;59659;41.520;23.794;2022-12-04T03:55:45;8.05;;;3.88;;
71814;SDS011;59659;41.520;23.794;2022-12-04T03:57:07;6.85;;;3.42;;
71814;SDS011;59659;41.520;23.794;2022-12-04T03:58:22;6.68;;;3.25;;
71814;SDS011;59659;41.520;23.794;2022-12-04T03:59:37;6.32;;;3.80;;
71814;SDS011;59659;41.520;23.794;2022-12-04T04:00:50;8.13;;;3.92;;
71814;SDS011;59659;41.520;23.794;2022-12-04T04:02:02;11.38;;;4.55;;
71814;SDS011;59659;41.520;23.794;2022-12-04T04:03:16;8.38;;;4.20;;
71814;SDS011;59659;41.520;23.794;2022-12-04T04:04:31;7.63;;;4.15;;
71814;SDS011;59659;41.520;23.794;2022-12-04T04:05:45;10.35;;;4.10;;
71814;SDS011;59659;41.520;23.794;2022-12-04T04:07:02;7.95;;;4.25;;
71814;SDS011;59659;41.520;23.794;2022-12-04T04:08:16;8.90;;;3.85;;
71814;SDS011;59659;41.520;23.794;2022-12-04T04:09:40;10.02;;;4.47;;
71814;SDS011;59659;41.520;23.794;2022-12-04T04:11:06;8.25;;;4.28;;
71814;SDS011;59659;41.520;23.794;2022-12-04T04:12:20;13.00;;;5.85;;
71814;SDS011;59659;41.520;23.794;2022-12-04T04:13:37;10.75;;;5.63;;
71814;SDS011;59659;41.520;23.794;2022-12-04T04:15:11;10.13;;;5.00;;
71814;SDS011;59659;41.520;23.794;2022-12-04T04:16:44;9.20;;;5.05;;
71814;SDS011;59659;41.520;23.794;2022-12-04T04:18:15;10.35;;;5.07;;
71814;SDS011;59659;41.520;23.794;2022-12-04T04:19:47;14.38;;;4.47;;
71814;SDS011;59659;41.520;23.794;2022-12-04T04:21:19;9.02;;;4.78;;
71814;SDS011;59659;41.520;23.794;2022-12-04T04:22:51;9.90;;;4.93;;
71814;SDS011;59659;41.520;23.794;2022-12-04T04:25:38;8.77;;;4.68;;
71814;SDS011;59659;41.520;23.794;2022-12-04T04:26:50;8.80;;;4.50;;
71814;SDS011;59659;41.520;23.794;2022-12-04T04:28:02;10.85;;;5.53;;
71814;SDS011;59659;41.520;23.794;2022-12-04T04:29:13;10.70;;;5.10;;
71814;SDS011;59659;41.520;23.794;2022-12-04T04:30:25;9.20;;;4.18;;
71814;SDS011;59659;41.520;23.794;2022-12-04T04:33:12;10.23;;;4.68;;
71814;SDS011;59659;41.520;23.794;2022-12-04T04:35:43;14.18;;;4.40;;
71814;SDS011;59659;41.520;23.794;2022-12-04T04:37:00;9.88;;;4.80;;
71814;SDS011;59659;41.520;23.794;2022-12-04T04:38:20;11.30;;;5.43;;
71814;SDS011;59659;41.520;23.794;2022-12-04T04:39:37;9.23;;;4.60;;
71814;SDS011;59659;41.520;23.794;2022-12-04T04:42:21;16.08;;;4.53;;
71814;SDS011;59659;41.520;23.794;2022-12-04T04:43:36;12.57;;;5.45;;
71814;SDS011;59659;41.520;23.794;2022-12-04T04:44:51;6.97;;;4.38;;
71814;SDS011;59659;41.520;23.794;2022-12-04T04:46:05;8.88;;;4.35;;
71814;SDS011;59659;41.520;23.794;2022-12-04T04:47:19;7.28;;;3.53;;
71814;SDS011;59659;41.520;23.794;2022-12-04T04:48:35;8.35;;;4.05;;
71814;SDS011;59659;41.520;23.794;2022-12-04T04:49:49;8.30;;;4.35;;
71814;SDS011;59659;41.520;23.794;2022-12-04T04:51:02;10.63;;;3.80;;
71814;SDS011;59659;41.520;23.794;2022-12-04T04:52:15;7.53;;;4.45;;
71814;SDS011;59659;41.520;23.794;2022-12-04T04:53:46;9.02;;;4.22;;
71814;SDS011;59659;41.520;23.794;2022-12-04T04:54:59;10.95;;;4.75;;
71814;SDS011;59659;41.520;23.794;2022-12-04T04:56:11;8.57;;;4.45;;
71814;SDS011;59659;41.520;23.794;2022-12-04T04:57:27;7.88;;;4.60;;
71814;SDS011;59659;41.520;23.794;2022-12-04T04:58:38;9.32;;;3.58;;
71814;SDS011;59659;41.520;23.794;2022-12-04T04:59:50;9.35;;;5.00;;
71814;SDS011;59659;41.520;23.794;2022-12-04T05:01:03;10.98;;;3.97;;
71814;SDS011;59659;41.520;23.794;2022-12-04T05:02:15;13.32;;;6.72;;
71814;SDS011;59659;41.520;23.794;2022-12-04T05:03:26;13.55;;;7.13;;
71814;SDS011;59659;41.520;23.794;2022-12-04T05:04:38;8.88;;;4.65;;
71814;SDS011;59659;41.520;23.794;2022-12-04T05:05:49;7.57;;;5.00;;
71814;SDS011;59659;41.520;23.794;2022-12-04T05:07:01;6.95;;;4.03;;
71814;SDS011;59659;41.520;23.794;2022-12-04T05:08:12;8.13;;;4.75;;
71814;SDS011;59659;41.520;23.794;2022-12-04T05:09:24;11.48;;;4.65;;
71814;SDS011;59659;41.520;23.794;2022-12-04T05:10:36;9.80;;;5.55;;
71814;SDS011;59659;41.520;23.794;2022-12-04T05:11:48;7.50;;;4.25;;
71814;SDS011;59659;41.520;23.794;2022-12-04T05:12:59;6.53;;;3.63;;
71814;SDS011;59659;41.520;23.794;2022-12-04T05:14:11;8.90;;;4.53;;
71814;SDS011;59659;41.520;23.794;2022-12-04T05:15:22;6.88;;;4.68;;
71814;SDS011;59659;41.520;23.794;2022-12-04T05:16:34;10.05;;;4.60;;
71814;SDS011;59659;41.520;23.794;2022-12-04T05:17:45;8.52;;;4.32;;
71814;SDS011;59659;41.520;23.794;2022-12-04T05:18:57;8.90;;;4.15;;
71814;SDS011;59659;41.520;23.794;2022-12-04T05:20:27;8.93;;;4.60;;
71814;SDS011;59659;41.520;23.794;2022-12-04T05:21:39;8.82;;;4.20;;
71814;SDS011;59659;41.520;23.794;2022-12-04T05:22:51;10.38;;;4.68;;
71814;SDS011;59659;41.520;23.794;2022-12-04T05:24:03;9.48;;;4.13;;
71814;SDS011;59659;41.520;23.794;2022-12-04T05:25:15;9.98;;;5.00;;
71814;SDS011;59659;41.520;23.794;2022-12-04T05:26:26;14.05;;;6.28;;
71814;SDS011;59659;41.520;23.794;2022-12-04T05:27:38;10.70;;;4.97;;
71814;SDS011;59659;41.520;23.794;2022-12-04T05:28:49;12.32;;;6.07;;
71814;SDS011;59659;41.520;23.794;2022-12-04T05:30:01;11.23;;;5.68;;
71814;SDS011;59659;41.520;23.794;2022-12-04T05:31:12;11.52;;;5.60;;
71814;SDS011;59659;41.520;23.794;2022-12-04T05:32:25;11.90;;;6.40;;
71814;SDS011;59659;41.520;23.794;2022-12-04T05:33:36;12.48;;;6.90;;
71814;SDS011;59659;41.520;23.794;2022-12-04T05:34:49;12.90;;;7.40;;
71814;SDS011;59659;41.520;23.794;2022-12-04T05:36:01;13.80;;;8.05;;
71814;SDS011;59659;41.520;23.794;2022-12-04T05:37:13;24.20;;;8.75;;
71814;SDS011;59659;41.520;23.794;2022-12-04T05:38:25;17.70;;;8.98;;
71814;SDS011;59659;41.520;23.794;2022-12-04T05:39:36;12.35;;;5.82;;
71814;SDS011;59659;41.520;23.794;2022-12-04T05:40:47;6.25;;;3.65;;
71814;SDS011;59659;41.520;23.794;2022-12-04T05:41:59;7.32;;;4.25;;
71814;SDS011;59659;41.520;23.794;2022-12-04T05:43:11;7.80;;;3.88;;
71814;SDS011;59659;41.520;23.794;2022-12-04T05:44:22;7.28;;;3.80;;
71814;SDS011;59659;41.520;23.794;2022-12-04T05:45:34;10.02;;;3.97;;
71814;SDS011;59659;41.520;23.794;2022-12-04T05:46:45;8.27;;;3.95;;
71814;SDS011;59659;41.520;23.794;2022-12-04T05:47:57;8.90;;;4.35;;
71814;SDS011;59659;41.520;23.794;2022-12-04T05:49:09;12.65;;;5.57;;
71814;SDS011;59659;41.520;23.794;2022-12-04T05:50:20;11.68;;;5.25;;
71814;SDS011;59659;41.520;23.794;2022-12-04T05:51:32;12.52;;;4.93;;
71814;SDS011;59659;41.520;23.794;2022-12-04T05:52:43;10.18;;;4.75;;
71814;SDS011;59659;41.520;23.794;2022-12-04T05:53:55;10.73;;;4.70;;
71814;SDS011;59659;41.520;23.794;2022-12-04T05:55:06;12.73;;;5.45;;
71814;SDS011;59659;41.520;23.794;2022-12-04T05:56:18;13.23;;;6.30;;
71814;SDS011;59659;41.520;23.794;2022-12-04T05:57:30;8.70;;;4.57;;
71814;SDS011;59659;41.520;23.794;2022-12-04T05:58:41;15.00;;;6.55;;
71814;SDS011;59659;41.520;23.794;2022-12-04T05:59:53;14.40;;;7.07;;
71814;SDS011;59659;41.520;23.794;2022-12-04T06:01:12;13.30;;;7.82;;
71814;SDS011;59659;41.520;23.794;2022-12-04T06:02:23;12.77;;;6.38;;
71814;SDS011;59659;41.520;23.794;2022-12-04T06:03:35;10.30;;;5.38;;
71814;SDS011;59659;41.520;23.794;2022-12-04T06:04:47;12.38;;;5.32;;
71814;SDS011;59659;41.520;23.794;2022-12-04T06:05:58;10.70;;;5.05;;
71814;SDS011;59659;41.520;23.794;2022-12-04T06:07:10;35.47;;;15.63;;
71814;SDS011;59659;41.520;23.794;2022-12-04T06:08:21;42.15;;;18.30;;
71814;SDS011;59659;41.520;23.794;2022-12-04T06:09:33;13.00;;;6.35;;
71814;SDS011;59659;41.520;23.794;2022-12-04T06:10:44;9.15;;;5.28;;
71814;SDS011;59659;41.520;23.794;2022-12-04T06:11:56;12.88;;;6.15;;
71814;SDS011;59659;41.520;23.794;2022-12-04T06:13:08;10.27;;;4.85;;
71814;SDS011;59659;41.520;23.794;2022-12-04T06:14:19;10.30;;;4.30;;
71814;SDS011;59659;41.520;23.794;2022-12-04T06:15:35;11.40;;;6.15;;
71814;SDS011;59659;41.520;23.794;2022-12-04T06:16:46;9.55;;;5.18;;
71814;SDS011;59659;41.520;23.794;2022-12-04T06:17:58;10.20;;;5.15;;
71814;SDS011;59659;41.520;23.794;2022-12-04T06:19:11;17.42;;;7.68;;
71814;SDS011;59659;41.520;23.794;2022-12-04T06:20:23;15.35;;;6.40;;
71814;SDS011;59659;41.520;23.794;2022-12-04T06:21:36;15.80;;;7.88;;
71814;SDS011;59659;41.520;23.794;2022-12-04T06:22:48;12.05;;;6.03;;
71814;SDS011;59659;41.520;23.794;2022-12-04T06:23:59;10.00;;;6.03;;
71814;SDS011;59659;41.520;23.794;2022-12-04T06:25:11;16.30;;;5.85;;
71814;SDS011;59659;41.520;23.794;2022-12-04T06:26:23;10.88;;;5.55;;
71814;SDS011;59659;41.520;23.794;2022-12-04T06:27:34;20.08;;;7.25;;
71814;SDS011;59659;41.520;23.794;2022-12-04T06:28:46;32.88;;;14.02;;
71814;SDS011;59659;41.520;23.794;2022-12-04T06:29:57;28.30;;;11.25;;
71814;SDS011;59659;41.520;23.794;2022-12-04T06:31:10;43.85;;;18.30;;
71814;SDS011;59659;41.520;23.794;2022-12-04T06:32:22;19.63;;;8.20;;
71814;SDS011;59659;41.520;23.794;2022-12-04T06:33:34;15.63;;;7.82;;
71814;SDS011;59659;41.520;23.794;2022-12-04T06:34:48;13.93;;;6.43;;
71814;SDS011;59659;41.520;23.794;2022-12-04T06:36:00;24.48;;;10.95;;
71814;SDS011;59659;41.520;23.794;2022-12-04T06:37:12;15.10;;;7.80;;
71814;SDS011;59659;41.520;23.794;2022-12-04T06:38:23;12.27;;;5.72;;
71814;SDS011;59659;41.520;23.794;2022-12-04T06:39:35;11.27;;;6.50;;
71814;SDS011;59659;41.520;23.794;2022-12-04T06:40:46;10.98;;;5.45;;
71814;SDS011;59659;41.520;23.794;2022-12-04T06:41:58;9.30;;;5.28;;
71814;SDS011;59659;41.520;23.794;2022-12-04T06:43:09;16.00;;;6.32;;
71814;SDS011;59659;41.520;23.794;2022-12-04T06:44:21;11.80;;;4.97;;
71814;SDS011;59659;41.520;23.794;2022-12-04T06:45:32;12.85;;;5.65;;
71814;SDS011;59659;41.520;23.794;2022-12-04T06:46:44;18.58;;;8.18;;
71814;SDS011;59659;41.520;23.794;2022-12-04T06:47:58;12.50;;;6.00;;
71814;SDS011;59659;41.520;23.794;2022-12-04T06:49:09;11.20;;;5.30;;
71814;SDS011;59659;41.520;23.794;2022-12-04T06:50:21;14.40;;;6.75;;
71814;SDS011;59659;41.520;23.794;2022-12-04T06:51:34;17.27;;;8.02;;
71814;SDS011;59659;41.520;23.794;2022-12-04T06:52:45;50.67;;;22.75;;
71814;SDS011;59659;41.520;23.794;2022-12-04T06:53:57;54.60;;;20.67;;
71814;SDS011;59659;41.520;23.794;2022-12-04T06:55:08;56.10;;;22.70;;
71814;SDS011;59659;41.520;23.794;2022-12-04T06:56:21;33.22;;;14.25;;
71814;SDS011;59659;41.520;23.794;2022-12-04T06:57:33;14.90;;;7.30;;
71814;SDS011;59659;41.520;23.794;2022-12-04T06:58:49;14.55;;;6.32;;
71814;SDS011;59659;41.520;23.794;2022-12-04T07:00:01;11.50;;;6.25;;
71814;SDS011;59659;41.520;23.794;2022-12-04T07:01:13;19.02;;;9.55;;
71814;SDS011;59659;41.520;23.794;2022-12-04T07:02:25;16.73;;;7.38;;
71814;SDS011;59659;41.520;23.794;2022-12-04T07:03:36;15.77;;;9.98;;
71814;SDS011;59659;41.520;23.794;2022-12-04T07:04:48;18.33;;;9.88;;
71814;SDS011;59659;41.520;23.794;2022-12-04T07:06:08;20.23;;;8.60;;
71814;SDS011;59659;41.520;23.794;2022-12-04T07:07:20;21.85;;;10.48;;
71814;SDS011;59659;41.520;23.794;2022-12-04T07:08:31;28.60;;;14.45;;
71814;SDS011;59659;41.520;23.794;2022-12-04T07:09:43;51.85;;;15.13;;
71814;SDS011;59659;41.520;23.794;2022-12-04T07:10:55;40.92;;;14.40;;
71814;SDS011;59659;41.520;23.794;2022-12-04T07:12:09;41.95;;;12.88;;
71814;SDS011;59659;41.520;23.794;2022-12-04T07:13:21;66.55;;;19.40;;
71814;SDS011;59659;41.520;23.794;2022-12-04T07:14:32;84.40;;;23.38;;
71814;SDS011;59659;41.520;23.794;2022-12-04T07:15:44;71.85;;;22.58;;
71814;SDS011;59659;41.520;23.794;2022-12-04T07:16:55;24.80;;;10.57;;
71814;SDS011;59659;41.520;23.794;2022-12-04T07:18:07;12.65;;;6.70;;
71814;SDS011;59659;41.520;23.794;2022-12-04T07:19:19;16.20;;;7.53;;
71814;SDS011;59659;41.520;23.794;2022-12-04T07:20:30;13.63;;;6.68;;
71814;SDS011;59659;41.520;23.794;2022-12-04T07:21:42;20.52;;;11.43;;
71814;SDS011;59659;41.520;23.794;2022-12-04T07:22:54;28.27;;;12.45;;
71814;SDS011;59659;41.520;23.794;2022-12-04T07:24:06;25.10;;;11.57;;
71814;SDS011;59659;41.520;23.794;2022-12-04T07:25:17;25.95;;;12.25;;
71814;SDS011;59659;41.520;23.794;2022-12-04T07:26:29;16.98;;;8.07;;
71814;SDS011;59659;41.520;23.794;2022-12-04T07:27:41;14.45;;;6.82;;
71814;SDS011;59659;41.520;23.794;2022-12-04T07:28:53;15.38;;;6.03;;
71814;SDS011;59659;41.520;23.794;2022-12-04T07:30:05;16.77;;;7.38;;
71814;SDS011;59659;41.520;23.794;2022-12-04T07:31:25;29.20;;;12.25;;
71814;SDS011;59659;41.520;23.794;2022-12-04T07:32:37;36.47;;;15.88;;
71814;SDS011;59659;41.520;23.794;2022-12-04T07:33:49;25.25;;;10.32;;
71814;SDS011;59659;41.520;23.794;2022-12-04T07:35:01;37.03;;;15.57;;
71814;SDS011;59659;41.520;23.794;2022-12-04T07:36:18;28.02;;;11.77;;
71814;SDS011;59659;41.520;23.794;2022-12-04T07:37:30;33.58;;;13.30;;
71814;SDS011;59659;41.520;23.794;2022-12-04T07:38:41;24.30;;;11.70;;
71814;SDS011;59659;41.520;23.794;2022-12-04T07:39:53;26.48;;;13.63;;
71814;SDS011;59659;41.520;23.794;2022-12-04T07:41:06;30.20;;;15.07;;
71814;SDS011;59659;41.520;23.794;2022-12-04T07:42:21;16.02;;;9.77;;
71814;SDS011;59659;41.520;23.794;2022-12-04T07:43:34;17.98;;;8.38;;
71814;SDS011;59659;41.520;23.794;2022-12-04T07:44:46;18.88;;;9.07;;
71814;SDS011;59659;41.520;23.794;2022-12-04T07:45:58;19.17;;;8.55;;